createdAt,value
2023-03-15T00:00:07.100Z,611.20
2023-03-15T00:00:17.103Z,611.14
2023-03-15T00:00:27.106Z,611.08
2023-03-15T00:00:37.100Z,611.30
2023-03-15T00:00:47.100Z,611.33
2023-03-15T00:00:57.116Z,611.21
2023-03-15T00:01:07.116Z,611.01
2023-03-15T00:01:17.106Z,611.00
2023-03-15T00:01:27.139Z,611.33
2023-03-15T00:01:37.104Z,611.41
2023-03-15T00:01:47.130Z,610.97
2023-03-15T00:01:57.107Z,611.32
2023-03-15T00:02:07.145Z,611.10
2023-03-15T00:02:17.150Z,611.31
2023-03-15T00:02:27.178Z,611.07
2023-03-15T00:02:37.134Z,610.91
2023-03-15T00:02:47.132Z,610.87
2023-03-15T00:02:57.120Z,610.78
2023-03-15T00:03:07.111Z,610.89
2023-03-15T00:03:17.158Z,610.69
2023-03-15T00:03:27.160Z,611.19
2023-03-15T00:03:37.204Z,610.95
2023-03-15T00:03:47.189Z,611.08
2023-03-15T00:03:57.221Z,610.81
2023-03-15T00:04:07.115Z,610.61
2023-03-15T00:04:17.124Z,610.79
2023-03-15T00:04:27.121Z,610.61
2023-03-15T00:04:37.139Z,610.74
2023-03-15T00:04:47.139Z,610.59
2023-03-15T00:04:57.122Z,610.59
2023-03-15T00:05:07.130Z,610.62
2023-03-15T00:05:17.127Z,610.57
2023-03-15T00:05:27.122Z,610.47
2023-03-15T00:05:37.140Z,610.67
2023-03-15T00:05:47.128Z,610.52
2023-03-15T00:05:57.142Z,610.50
2023-03-15T00:06:07.134Z,610.58
2023-03-15T00:06:17.130Z,610.60
2023-03-15T00:06:27.128Z,610.50
2023-03-15T00:06:37.139Z,610.50
2023-03-15T00:06:47.136Z,610.45
2023-03-15T00:06:57.142Z,610.63
2023-03-15T00:07:07.129Z,610.65
2023-03-15T00:07:17.139Z,610.59
2023-03-15T00:07:27.135Z,610.46
2023-03-15T00:07:37.142Z,610.72
2023-03-15T00:07:47.156Z,610.63
2023-03-15T00:07:57.141Z,610.79
2023-03-15T00:08:07.148Z,610.75
2023-03-15T00:08:17.144Z,610.66
2023-03-15T00:08:27.142Z,610.67
2023-03-15T00:08:37.158Z,610.63
2023-03-15T00:08:47.173Z,610.79
2023-03-15T00:08:57.140Z,610.80
2023-03-15T00:09:07.147Z,610.87
2023-03-15T00:09:17.161Z,610.90
2023-03-15T00:09:27.142Z,610.92
2023-03-15T00:09:37.158Z,610.97
2023-03-15T00:09:47.146Z,610.77
2023-03-15T00:09:57.147Z,610.84
2023-03-15T00:10:07.160Z,610.73
2023-03-15T00:10:17.166Z,610.80
2023-03-15T00:10:27.146Z,610.65
2023-03-15T00:10:37.147Z,610.74
2023-03-15T00:10:47.157Z,610.71
2023-03-15T00:10:57.176Z,610.63
2023-03-15T00:11:07.165Z,610.60
2023-03-15T00:11:17.164Z,610.55
2023-03-15T00:11:27.153Z,610.41
2023-03-15T00:11:37.152Z,610.42
2023-03-15T00:11:47.185Z,610.44
2023-03-15T00:11:57.152Z,610.33
2023-03-15T00:12:08.017Z,610.37
2023-03-15T00:12:17.163Z,610.32
2023-03-15T00:12:27.165Z,610.28
2023-03-15T00:12:37.168Z,610.28
2023-03-15T00:12:47.203Z,610.39
2023-03-15T00:12:57.160Z,610.37
2023-03-15T00:13:07.163Z,610.41
2023-03-15T00:13:17.174Z,610.48
2023-03-15T00:13:27.163Z,610.20
2023-03-15T00:13:37.183Z,610.19
2023-03-15T00:13:47.189Z,610.41
2023-03-15T00:13:57.164Z,610.41
2023-03-15T00:14:07.173Z,610.14
2023-03-15T00:14:17.168Z,610.25
2023-03-15T00:14:27.166Z,610.17
2023-03-15T00:14:37.165Z,610.13
2023-03-15T00:14:47.172Z,610.05
2023-03-15T00:14:57.175Z,610.13
2023-03-15T00:15:07.168Z,610.34
2023-03-15T00:15:17.191Z,610.08
2023-03-15T00:15:27.320Z,610.07
2023-03-15T00:15:37.216Z,610.13
2023-03-15T00:15:47.180Z,610.20
2023-03-15T00:15:57.230Z,609.91
2023-03-15T00:16:07.241Z,609.86
2023-03-15T00:16:17.210Z,609.79
2023-03-15T00:16:27.179Z,609.75
2023-03-15T00:16:37.193Z,609.73
2023-03-15T00:16:47.182Z,609.74
2023-03-15T00:16:57.164Z,609.74
2023-03-15T00:17:07.181Z,609.68
2023-03-15T00:17:17.190Z,609.51
2023-03-15T00:17:27.198Z,609.63
2023-03-15T00:17:37.182Z,609.92
2023-03-15T00:17:47.184Z,609.52
2023-03-15T00:17:57.181Z,609.47
2023-03-15T00:18:07.180Z,609.40
2023-03-15T00:18:17.183Z,609.25
2023-03-15T00:18:27.184Z,609.36
2023-03-15T00:18:37.194Z,609.11
2023-03-15T00:18:47.474Z,609.08
2023-03-15T00:18:57.190Z,609.03
2023-03-15T00:19:07.184Z,609.07
2023-03-15T00:19:17.195Z,609.02
2023-03-15T00:19:27.191Z,608.99
2023-03-15T00:19:37.205Z,608.99
2023-03-15T00:19:47.191Z,608.94
2023-03-15T00:19:57.196Z,609.20
2023-03-15T00:20:07.225Z,608.89
2023-03-15T00:20:17.193Z,609.13
2023-03-15T00:20:27.203Z,608.80
2023-03-15T00:20:37.218Z,608.79
2023-03-15T00:20:47.210Z,608.96
2023-03-15T00:20:57.209Z,608.82
2023-03-15T00:21:07.208Z,608.77
2023-03-15T00:21:17.221Z,609.44
2023-03-15T00:21:27.201Z,608.94
2023-03-15T00:21:37.218Z,608.72
2023-03-15T00:21:47.214Z,608.82
2023-03-15T00:21:57.204Z,608.83
2023-03-15T00:22:07.232Z,608.58
2023-03-15T00:22:17.218Z,608.99
2023-03-15T00:22:27.203Z,608.71
2023-03-15T00:22:37.224Z,608.80
2023-03-15T00:22:47.211Z,608.76
2023-03-15T00:22:57.217Z,608.68
2023-03-15T00:23:07.211Z,608.65
2023-03-15T00:23:17.214Z,608.76
2023-03-15T00:23:27.237Z,608.74
2023-03-15T00:23:37.213Z,608.87
2023-03-15T00:23:47.228Z,608.78
2023-03-15T00:23:57.224Z,608.64
2023-03-15T00:24:07.320Z,608.52
2023-03-15T00:24:17.231Z,608.53
2023-03-15T00:24:27.228Z,608.67
2023-03-15T00:24:37.217Z,608.66
2023-03-15T00:24:47.224Z,608.62
2023-03-15T00:24:57.219Z,608.51
2023-03-15T00:25:07.212Z,608.64
2023-03-15T00:25:17.233Z,608.59
2023-03-15T00:25:27.269Z,609.01
2023-03-15T00:25:37.223Z,608.84
2023-03-15T00:25:47.218Z,608.74
2023-03-15T00:25:57.237Z,608.43
2023-03-15T00:26:07.228Z,608.74
2023-03-15T00:26:17.245Z,608.81
2023-03-15T00:26:27.217Z,608.91
2023-03-15T00:26:37.229Z,608.65
2023-03-15T00:26:47.240Z,609.23
2023-03-15T00:26:57.224Z,608.80
2023-03-15T00:27:07.240Z,609.06
2023-03-15T00:27:17.272Z,609.10
2023-03-15T00:27:27.230Z,608.97
2023-03-15T00:27:37.254Z,608.86
2023-03-15T00:27:47.225Z,608.96
2023-03-15T00:27:57.230Z,608.98
2023-03-15T00:28:07.229Z,608.95
2023-03-15T00:28:17.263Z,608.83
2023-03-15T00:28:27.236Z,608.83
2023-03-15T00:28:37.235Z,608.84
2023-03-15T00:28:47.239Z,608.83
2023-03-15T00:28:57.240Z,608.82
2023-03-15T00:29:07.241Z,608.85
2023-03-15T00:29:17.233Z,608.95
2023-03-15T00:29:27.247Z,608.96
2023-03-15T00:29:37.241Z,609.00
2023-03-15T00:29:47.231Z,608.77
2023-03-15T00:29:57.235Z,608.81
2023-03-15T00:30:07.267Z,608.87
2023-03-15T00:30:17.242Z,608.74
2023-03-15T00:30:27.258Z,608.55
2023-03-15T00:30:37.247Z,608.73
2023-03-15T00:30:47.293Z,608.72
2023-03-15T00:30:57.294Z,608.85
2023-03-15T00:31:07.295Z,608.96
2023-03-15T00:31:17.304Z,608.87
2023-03-15T00:31:27.342Z,608.52
2023-03-15T00:31:37.274Z,608.59
2023-03-15T00:31:47.246Z,608.53
2023-03-15T00:31:57.250Z,608.53
2023-03-15T00:32:07.255Z,608.54
2023-03-15T00:32:17.248Z,608.35
2023-03-15T00:32:27.288Z,608.56
2023-03-15T00:32:37.282Z,608.45
2023-03-15T00:32:47.300Z,608.45
2023-03-15T00:32:57.278Z,608.43
2023-03-15T00:33:07.276Z,608.32
2023-03-15T00:33:17.274Z,608.22
2023-03-15T00:33:27.295Z,608.29
2023-03-15T00:33:37.280Z,608.16
2023-03-15T00:33:47.270Z,608.15
2023-03-15T00:33:57.269Z,608.15
2023-03-15T00:34:07.260Z,608.13
2023-03-15T00:34:17.260Z,608.40
2023-03-15T00:34:27.276Z,608.22
2023-03-15T00:34:37.282Z,608.10
2023-03-15T00:34:47.266Z,608.05
2023-03-15T00:34:57.263Z,607.97
2023-03-15T00:35:07.258Z,608.08
2023-03-15T00:35:17.297Z,608.23
2023-03-15T00:35:27.273Z,608.12
2023-03-15T00:35:37.315Z,608.09
2023-03-15T00:35:47.292Z,608.10
2023-03-15T00:35:57.318Z,608.10
2023-03-15T00:36:07.323Z,608.08
2023-03-15T00:36:17.270Z,607.98
2023-03-15T00:36:27.280Z,607.85
2023-03-15T00:36:37.271Z,607.79
2023-03-15T00:36:47.267Z,607.78
2023-03-15T00:36:57.274Z,607.78
2023-03-15T00:37:07.270Z,607.78
2023-03-15T00:37:17.295Z,607.76
2023-03-15T00:37:27.274Z,607.80
2023-03-15T00:37:37.272Z,607.86
2023-03-15T00:37:47.294Z,607.77
2023-03-15T00:37:57.282Z,607.66
2023-03-15T00:38:07.281Z,607.48
2023-03-15T00:38:17.281Z,607.81
2023-03-15T00:38:27.284Z,608.14
2023-03-15T00:38:37.282Z,607.64
2023-03-15T00:38:47.291Z,607.82
2023-03-15T00:38:57.289Z,607.79
2023-03-15T00:39:07.284Z,607.58
2023-03-15T00:39:17.294Z,607.52
2023-03-15T00:39:27.296Z,607.62
2023-03-15T00:39:37.289Z,607.68
2023-03-15T00:39:47.294Z,607.78
2023-03-15T00:39:57.290Z,607.74
2023-03-15T00:40:07.295Z,607.48
2023-03-15T00:40:17.306Z,607.79
2023-03-15T00:40:27.292Z,607.93
2023-03-15T00:40:37.289Z,607.85
2023-03-15T00:40:47.294Z,607.54
2023-03-15T00:40:57.315Z,607.66
2023-03-15T00:41:07.291Z,607.84
2023-03-15T00:41:17.297Z,607.99
2023-03-15T00:41:27.327Z,607.79
2023-03-15T00:41:37.316Z,607.66
2023-03-15T00:41:47.297Z,607.73
2023-03-15T00:41:57.325Z,607.58
2023-03-15T00:42:07.293Z,607.64
2023-03-15T00:42:17.302Z,607.75
2023-03-15T00:42:27.306Z,607.67
2023-03-15T00:42:37.313Z,607.69
2023-03-15T00:42:47.302Z,607.63
2023-03-15T00:42:57.305Z,607.83
2023-03-15T00:43:07.303Z,607.65
2023-03-15T00:43:17.311Z,607.80
2023-03-15T00:43:27.342Z,607.74
2023-03-15T00:43:37.313Z,607.56
2023-03-15T00:43:47.308Z,607.78
2023-03-15T00:43:57.305Z,608.08
2023-03-15T00:44:07.319Z,607.71
2023-03-15T00:44:17.321Z,607.84
2023-03-15T00:44:27.316Z,607.62
2023-03-15T00:44:37.318Z,607.71
2023-03-15T00:44:47.318Z,607.39
2023-03-15T00:44:57.322Z,607.70
2023-03-15T00:45:07.299Z,607.84
2023-03-15T00:45:17.315Z,607.65
2023-03-15T00:45:27.328Z,607.44
2023-03-15T00:45:37.316Z,607.37
2023-03-15T00:45:47.336Z,607.34
2023-03-15T00:45:57.338Z,607.53
2023-03-15T00:46:07.354Z,607.48
2023-03-15T00:46:17.356Z,607.56
2023-03-15T00:46:27.336Z,607.40
2023-03-15T00:46:37.375Z,608.04
2023-03-15T00:46:47.337Z,607.61
2023-03-15T00:46:57.358Z,607.50
2023-03-15T00:47:07.325Z,607.42
2023-03-15T00:47:17.326Z,607.29
2023-03-15T00:47:27.325Z,607.41
2023-03-15T00:47:37.328Z,607.25
2023-03-15T00:47:47.326Z,607.83
2023-03-15T00:47:57.336Z,607.41
2023-03-15T00:48:07.338Z,607.26
2023-03-15T00:48:17.330Z,607.36
2023-03-15T00:48:27.340Z,607.23
2023-03-15T00:48:37.350Z,607.15
2023-03-15T00:48:47.338Z,607.10
2023-03-15T00:48:57.340Z,607.13
2023-03-15T00:49:07.330Z,607.29
2023-03-15T00:49:17.332Z,607.14
2023-03-15T00:49:27.340Z,607.19
2023-03-15T00:49:37.341Z,606.89
2023-03-15T00:49:47.335Z,606.71
2023-03-15T00:49:57.346Z,606.84
2023-03-15T00:50:07.350Z,607.05
2023-03-15T00:50:17.357Z,606.99
2023-03-15T00:50:27.363Z,607.01
2023-03-15T00:50:37.353Z,607.03
2023-03-15T00:50:47.345Z,607.10
2023-03-15T00:50:57.371Z,607.19
2023-03-15T00:51:07.342Z,606.92
2023-03-15T00:51:17.350Z,607.09
2023-03-15T00:51:27.350Z,607.00
2023-03-15T00:51:37.368Z,606.96
2023-03-15T00:51:47.369Z,607.18
2023-03-15T00:51:57.359Z,607.12
2023-03-15T00:52:07.367Z,607.15
2023-03-15T00:52:17.364Z,607.13
2023-03-15T00:52:27.374Z,607.08
2023-03-15T00:52:37.364Z,607.03
2023-03-15T00:52:47.354Z,607.12
2023-03-15T00:52:57.361Z,607.21
2023-03-15T00:53:07.357Z,607.19
2023-03-15T00:53:17.366Z,607.24
2023-03-15T00:53:27.366Z,607.19
2023-03-15T00:53:37.358Z,607.46
2023-03-15T00:53:47.374Z,607.50
2023-03-15T00:53:57.360Z,607.60
2023-03-15T00:54:07.364Z,607.69
2023-03-15T00:54:17.366Z,607.49
2023-03-15T00:54:27.366Z,607.29
2023-03-15T00:54:37.366Z,607.42
2023-03-15T00:54:47.372Z,607.63
2023-03-15T00:54:57.411Z,607.55
2023-03-15T00:55:07.367Z,607.38
2023-03-15T00:55:17.377Z,607.35
2023-03-15T00:55:27.404Z,607.38
2023-03-15T00:55:37.389Z,607.45
2023-03-15T00:55:47.373Z,607.34
2023-03-15T00:55:57.432Z,607.29
2023-03-15T00:56:07.373Z,607.35
2023-03-15T00:56:17.389Z,607.21
2023-03-15T00:56:27.378Z,607.26
2023-03-15T00:56:37.377Z,607.18
2023-03-15T00:56:47.379Z,607.21
2023-03-15T00:56:57.413Z,607.35
2023-03-15T00:57:07.375Z,607.08
2023-03-15T00:57:17.379Z,607.07
2023-03-15T00:57:27.388Z,607.04
2023-03-15T00:57:37.381Z,606.89
2023-03-15T00:57:47.386Z,606.87
2023-03-15T00:57:57.410Z,606.88
2023-03-15T00:58:07.380Z,606.79
2023-03-15T00:58:17.380Z,606.67
2023-03-15T00:58:27.649Z,606.99
2023-03-15T00:58:37.383Z,606.82
2023-03-15T00:58:47.393Z,606.90
2023-03-15T00:58:57.439Z,606.80
2023-03-15T00:59:07.394Z,606.86
2023-03-15T00:59:17.397Z,606.88
2023-03-15T00:59:27.400Z,606.84
2023-03-15T00:59:37.396Z,606.82
2023-03-15T00:59:47.391Z,606.88
2023-03-15T00:59:57.440Z,607.22
2023-03-15T01:00:07.389Z,607.06
2023-03-15T01:00:17.392Z,606.92
2023-03-15T01:00:27.397Z,606.90
2023-03-15T01:00:37.390Z,607.00
2023-03-15T01:00:47.396Z,607.06
2023-03-15T01:00:57.420Z,607.06
2023-03-15T01:01:07.405Z,606.94
2023-03-15T01:01:17.531Z,606.97
2023-03-15T01:01:27.437Z,606.86
2023-03-15T01:01:37.440Z,606.87
2023-03-15T01:01:47.497Z,606.82
2023-03-15T01:01:57.453Z,606.93
2023-03-15T01:02:07.472Z,607.06
2023-03-15T01:02:17.404Z,607.04
2023-03-15T01:02:27.424Z,606.92
2023-03-15T01:02:37.433Z,607.04
2023-03-15T01:02:47.527Z,606.89
2023-03-15T01:02:57.474Z,606.88
2023-03-15T01:03:07.466Z,606.95
2023-03-15T01:03:17.464Z,606.96
2023-03-15T01:03:27.421Z,606.96
2023-03-15T01:03:37.412Z,607.02
2023-03-15T01:03:47.424Z,606.99
2023-03-15T01:03:57.434Z,606.92
2023-03-15T01:04:07.419Z,606.89
2023-03-15T01:04:17.410Z,606.98
2023-03-15T01:04:27.421Z,607.04
2023-03-15T01:04:37.419Z,606.98
2023-03-15T01:04:47.412Z,607.06
2023-03-15T01:04:57.467Z,606.88
2023-03-15T01:05:07.409Z,606.83
2023-03-15T01:05:17.421Z,606.75
2023-03-15T01:05:27.418Z,606.62
2023-03-15T01:05:37.422Z,606.86
2023-03-15T01:05:47.428Z,607.00
2023-03-15T01:05:57.417Z,606.73
2023-03-15T01:06:07.566Z,606.80
2023-03-15T01:06:17.423Z,606.79
2023-03-15T01:06:27.423Z,606.61
2023-03-15T01:06:37.426Z,606.53
2023-03-15T01:06:47.436Z,606.63
2023-03-15T01:06:57.422Z,606.61
2023-03-15T01:07:07.435Z,606.42
2023-03-15T01:07:17.447Z,606.67
2023-03-15T01:07:27.425Z,606.48
2023-03-15T01:07:37.429Z,606.50
2023-03-15T01:07:47.430Z,606.56
2023-03-15T01:07:57.459Z,606.70
2023-03-15T01:08:07.430Z,606.60
2023-03-15T01:08:17.426Z,606.63
2023-03-15T01:08:27.432Z,606.67
2023-03-15T01:08:37.440Z,606.70
2023-03-15T01:08:47.440Z,606.79
2023-03-15T01:08:57.569Z,606.91
2023-03-15T01:09:07.431Z,606.67
2023-03-15T01:09:17.438Z,606.71
2023-03-15T01:09:27.457Z,606.84
2023-03-15T01:09:37.433Z,606.74
2023-03-15T01:09:48.553Z,606.81
2023-03-15T01:09:57.444Z,606.83
2023-03-15T01:10:07.447Z,606.74
2023-03-15T01:10:17.490Z,606.95
2023-03-15T01:10:27.435Z,606.78
2023-03-15T01:10:37.435Z,606.62
2023-03-15T01:10:47.489Z,606.69
2023-03-15T01:10:57.460Z,606.83
2023-03-15T01:11:07.461Z,606.86
2023-03-15T01:11:17.449Z,606.81
2023-03-15T01:11:27.432Z,606.77
2023-03-15T01:11:37.453Z,606.64
2023-03-15T01:11:47.464Z,606.62
2023-03-15T01:11:57.424Z,606.74
2023-03-15T01:12:07.446Z,606.63
2023-03-15T01:12:17.460Z,606.43
2023-03-15T01:12:27.440Z,606.60
2023-03-15T01:12:37.447Z,606.78
2023-03-15T01:12:47.463Z,606.56
2023-03-15T01:12:57.444Z,606.72
2023-03-15T01:13:08.035Z,606.74
2023-03-15T01:13:17.460Z,606.83
2023-03-15T01:13:27.444Z,606.96
2023-03-15T01:13:37.448Z,606.72
2023-03-15T01:13:47.477Z,606.69
2023-03-15T01:13:57.458Z,606.58
2023-03-15T01:14:07.456Z,606.57
2023-03-15T01:14:17.450Z,606.84
2023-03-15T01:14:27.449Z,606.67
2023-03-15T01:14:37.465Z,606.56
2023-03-15T01:14:47.457Z,606.61
2023-03-15T01:14:57.454Z,606.68
2023-03-15T01:15:07.460Z,606.56
2023-03-15T01:15:17.456Z,606.52
2023-03-15T01:15:27.459Z,606.53
2023-03-15T01:15:37.476Z,606.75
2023-03-15T01:15:47.509Z,606.56
2023-03-15T01:15:57.507Z,606.48
2023-03-15T01:16:07.538Z,606.42
2023-03-15T01:16:17.489Z,606.55
2023-03-15T01:16:27.532Z,606.53
2023-03-15T01:16:37.482Z,606.39
2023-03-15T01:16:47.468Z,606.47
2023-03-15T01:16:57.479Z,606.23
2023-03-15T01:17:07.485Z,606.34
2023-03-15T01:17:17.466Z,606.37
2023-03-15T01:17:27.469Z,606.32
2023-03-15T01:17:37.491Z,606.32
2023-03-15T01:17:47.529Z,606.36
2023-03-15T01:17:57.470Z,606.22
2023-03-15T01:18:07.503Z,606.16
2023-03-15T01:18:17.479Z,606.68
2023-03-15T01:18:27.479Z,606.46
2023-03-15T01:18:37.475Z,606.07
2023-03-15T01:18:47.484Z,606.08
2023-03-15T01:18:57.496Z,606.17
2023-03-15T01:19:07.477Z,606.57
2023-03-15T01:19:17.473Z,606.39
2023-03-15T01:19:27.478Z,606.51
2023-03-15T01:19:37.496Z,606.31
2023-03-15T01:19:47.495Z,606.14
2023-03-15T01:19:57.476Z,606.28
2023-03-15T01:20:07.485Z,606.05
2023-03-15T01:20:17.490Z,606.43
2023-03-15T01:20:27.490Z,606.20
2023-03-15T01:20:37.493Z,606.09
2023-03-15T01:20:47.485Z,606.35
2023-03-15T01:20:57.486Z,606.31
2023-03-15T01:21:07.512Z,606.26
2023-03-15T01:21:17.489Z,606.24
2023-03-15T01:21:27.503Z,606.52
2023-03-15T01:21:37.488Z,606.15
2023-03-15T01:21:47.489Z,606.00
2023-03-15T01:21:57.496Z,606.21
2023-03-15T01:22:07.509Z,606.35
2023-03-15T01:22:17.492Z,606.16
2023-03-15T01:22:28.065Z,606.18
2023-03-15T01:22:37.506Z,606.20
2023-03-15T01:22:47.505Z,606.15
2023-03-15T01:22:57.500Z,606.24
2023-03-15T01:23:07.491Z,606.12
2023-03-15T01:23:17.504Z,606.30
2023-03-15T01:23:27.500Z,606.33
2023-03-15T01:23:37.519Z,606.21
2023-03-15T01:23:47.492Z,606.10
2023-03-15T01:23:57.506Z,606.05
2023-03-15T01:24:07.496Z,606.27
2023-03-15T01:24:17.501Z,606.25
2023-03-15T01:24:27.507Z,606.40
2023-03-15T01:24:37.509Z,606.23
2023-03-15T01:24:47.498Z,606.11
2023-03-15T01:24:57.508Z,606.10
2023-03-15T01:25:07.502Z,606.02
2023-03-15T01:25:17.514Z,606.00
2023-03-15T01:25:27.502Z,605.97
2023-03-15T01:25:37.510Z,606.46
2023-03-15T01:25:47.502Z,606.75
2023-03-15T01:25:57.516Z,606.01
2023-03-15T01:26:07.545Z,605.97
2023-03-15T01:26:17.544Z,606.07
2023-03-15T01:26:27.539Z,606.04
2023-03-15T01:26:37.524Z,605.93
2023-03-15T01:26:47.515Z,606.20
2023-03-15T01:26:57.537Z,605.97
2023-03-15T01:27:07.545Z,605.82
2023-03-15T01:27:17.525Z,606.07
2023-03-15T01:27:27.519Z,606.27
2023-03-15T01:27:37.555Z,606.01
2023-03-15T01:27:47.533Z,606.07
2023-03-15T01:27:57.518Z,605.99
2023-03-15T01:28:07.537Z,605.82
2023-03-15T01:28:17.523Z,605.93
2023-03-15T01:28:27.532Z,605.76
2023-03-15T01:28:37.550Z,606.04
2023-03-15T01:28:47.546Z,606.55
2023-03-15T01:28:57.527Z,606.26
2023-03-15T01:29:07.529Z,606.12
2023-03-15T01:29:17.528Z,605.94
2023-03-15T01:29:27.562Z,606.35
2023-03-15T01:29:37.546Z,605.86
2023-03-15T01:29:47.530Z,606.14
2023-03-15T01:29:57.533Z,606.27
2023-03-15T01:30:07.566Z,606.05
2023-03-15T01:30:17.540Z,606.00
2023-03-15T01:30:27.551Z,606.00
2023-03-15T01:30:37.542Z,606.05
2023-03-15T01:30:49.691Z,606.07
2023-03-15T01:30:59.469Z,606.01
2023-03-15T01:31:07.576Z,606.13
2023-03-15T01:31:17.571Z,606.15
2023-03-15T01:31:27.656Z,606.13
2023-03-15T01:31:37.583Z,605.99
2023-03-15T01:31:47.555Z,606.15
2023-03-15T01:31:57.565Z,606.01
2023-03-15T01:32:07.572Z,606.14
2023-03-15T01:32:17.548Z,606.05
2023-03-15T01:32:27.604Z,606.06
2023-03-15T01:32:37.630Z,606.15
2023-03-15T01:32:47.597Z,606.08
2023-03-15T01:32:57.621Z,606.04
2023-03-15T01:33:07.548Z,606.15
2023-03-15T01:33:17.545Z,606.07
2023-03-15T01:33:27.561Z,606.12
2023-03-15T01:33:37.553Z,606.14
2023-03-15T01:33:47.552Z,606.25
2023-03-15T01:33:57.575Z,606.39
2023-03-15T01:34:07.556Z,606.20
2023-03-15T01:34:17.552Z,606.17
2023-03-15T01:34:27.564Z,606.07
2023-03-15T01:34:37.551Z,606.12
2023-03-15T01:34:47.556Z,606.01
2023-03-15T01:34:57.580Z,606.01
2023-03-15T01:35:07.557Z,606.00
2023-03-15T01:35:17.562Z,606.00
2023-03-15T01:35:27.558Z,606.05
2023-03-15T01:35:37.595Z,606.13
2023-03-15T01:35:47.581Z,606.11
2023-03-15T01:35:57.577Z,606.09
2023-03-15T01:36:07.669Z,605.99
2023-03-15T01:36:17.583Z,605.94
2023-03-15T01:36:27.587Z,606.09
2023-03-15T01:36:37.594Z,606.01
2023-03-15T01:36:47.567Z,605.98
2023-03-15T01:36:57.573Z,605.88
2023-03-15T01:37:07.582Z,606.00
2023-03-15T01:37:17.589Z,606.20
2023-03-15T01:37:27.595Z,606.04
2023-03-15T01:37:37.579Z,606.02
2023-03-15T01:37:47.574Z,606.18
2023-03-15T01:37:57.568Z,605.80
2023-03-15T01:38:07.579Z,606.14
2023-03-15T01:38:17.587Z,606.15
2023-03-15T01:38:27.583Z,605.87
2023-03-15T01:38:37.572Z,605.96
2023-03-15T01:38:47.576Z,605.76
2023-03-15T01:38:57.595Z,605.89
2023-03-15T01:39:07.575Z,605.89
2023-03-15T01:39:17.572Z,605.66
2023-03-15T01:39:27.597Z,605.76
2023-03-15T01:39:37.603Z,605.74
2023-03-15T01:39:47.577Z,605.57
2023-03-15T01:39:57.591Z,605.76
2023-03-15T01:40:07.591Z,605.91
2023-03-15T01:40:17.580Z,605.70
2023-03-15T01:40:27.598Z,605.79
2023-03-15T01:40:37.594Z,605.75
2023-03-15T01:40:47.589Z,605.71
2023-03-15T01:40:57.588Z,605.68
2023-03-15T01:41:07.615Z,605.64
2023-03-15T01:41:17.609Z,605.62
2023-03-15T01:41:27.616Z,605.44
2023-03-15T01:41:37.609Z,605.63
2023-03-15T01:41:47.599Z,605.74
2023-03-15T01:41:57.584Z,605.74
2023-03-15T01:42:07.593Z,605.54
2023-03-15T01:42:17.604Z,605.72
2023-03-15T01:42:27.614Z,605.69
2023-03-15T01:42:37.610Z,605.65
2023-03-15T01:42:47.598Z,605.67
2023-03-15T01:42:57.594Z,605.68
2023-03-15T01:43:07.610Z,605.65
2023-03-15T01:43:17.595Z,605.59
2023-03-15T01:43:27.594Z,605.64
2023-03-15T01:43:37.595Z,605.90
2023-03-15T01:43:47.610Z,606.23
2023-03-15T01:43:57.597Z,605.74
2023-03-15T01:44:07.612Z,605.63
2023-03-15T01:44:17.665Z,605.77
2023-03-15T01:44:27.625Z,605.71
2023-03-15T01:44:37.601Z,605.88
2023-03-15T01:44:47.602Z,605.82
2023-03-15T01:44:57.625Z,605.87
2023-03-15T01:45:07.603Z,606.01
2023-03-15T01:45:17.619Z,605.88
2023-03-15T01:45:27.601Z,605.79
2023-03-15T01:45:37.637Z,605.99
2023-03-15T01:45:47.621Z,605.96
2023-03-15T01:45:57.634Z,605.93
2023-03-15T01:46:07.651Z,605.85
2023-03-15T01:46:17.668Z,606.08
2023-03-15T01:46:27.686Z,606.10
2023-03-15T01:46:37.671Z,606.08
2023-03-15T01:46:47.692Z,606.10
2023-03-15T01:46:57.675Z,605.98
2023-03-15T01:47:07.696Z,605.97
2023-03-15T01:47:17.631Z,606.11
2023-03-15T01:47:27.623Z,606.18
2023-03-15T01:47:37.624Z,606.29
2023-03-15T01:47:47.616Z,606.19
2023-03-15T01:47:57.642Z,606.16
2023-03-15T01:48:07.656Z,606.16
2023-03-15T01:48:17.622Z,605.96
2023-03-15T01:48:27.629Z,605.95
2023-03-15T01:48:37.626Z,606.11
2023-03-15T01:48:47.637Z,606.05
2023-03-15T01:48:57.626Z,606.06
2023-03-15T01:49:07.641Z,606.25
2023-03-15T01:49:17.668Z,606.24
2023-03-15T01:49:27.626Z,605.94
2023-03-15T01:49:37.634Z,606.27
2023-03-15T01:49:47.628Z,606.27
2023-03-15T01:49:57.629Z,606.22
2023-03-15T01:50:07.647Z,606.48
2023-03-15T01:50:17.645Z,606.13
2023-03-15T01:50:27.655Z,606.27
2023-03-15T01:50:37.650Z,606.29
2023-03-15T01:50:47.638Z,606.18
2023-03-15T01:50:57.640Z,606.40
2023-03-15T01:51:07.635Z,606.14
2023-03-15T01:51:17.661Z,606.20
2023-03-15T01:51:27.642Z,606.13
2023-03-15T01:51:37.650Z,606.13
2023-03-15T01:51:47.648Z,606.20
2023-03-15T01:51:57.658Z,606.17
2023-03-15T01:52:07.660Z,606.21
2023-03-15T01:52:17.678Z,606.21
2023-03-15T01:52:27.646Z,606.88
2023-03-15T01:52:37.662Z,606.46
2023-03-15T01:52:47.644Z,606.29
2023-03-15T01:52:57.643Z,606.30
2023-03-15T01:53:07.650Z,606.22
2023-03-15T01:53:17.644Z,606.23
2023-03-15T01:53:27.651Z,606.71
2023-03-15T01:53:37.661Z,606.43
2023-03-15T01:53:47.658Z,606.15
2023-03-15T01:53:57.643Z,606.28
2023-03-15T01:54:07.672Z,606.29
2023-03-15T01:54:17.662Z,606.39
2023-03-15T01:54:27.643Z,606.29
2023-03-15T01:54:37.653Z,606.32
2023-03-15T01:54:47.649Z,606.33
2023-03-15T01:54:57.666Z,606.36
2023-03-15T01:55:07.660Z,606.43
2023-03-15T01:55:17.658Z,606.33
2023-03-15T01:55:27.649Z,606.35
2023-03-15T01:55:37.650Z,606.24
2023-03-15T01:55:47.653Z,606.33
2023-03-15T01:55:57.663Z,606.30
2023-03-15T01:56:07.665Z,606.33
2023-03-15T01:56:17.659Z,606.41
2023-03-15T01:56:27.715Z,606.48
2023-03-15T01:56:37.666Z,606.27
2023-03-15T01:56:47.655Z,606.36
2023-03-15T01:56:57.659Z,606.23
2023-03-15T01:57:07.659Z,606.16
2023-03-15T01:57:17.664Z,606.30
2023-03-15T01:57:27.667Z,606.33
2023-03-15T01:57:37.660Z,606.65
2023-03-15T01:57:47.666Z,606.40
2023-03-15T01:57:57.667Z,606.33
2023-03-15T01:58:07.676Z,606.23
2023-03-15T01:58:17.677Z,606.22
2023-03-15T01:58:27.673Z,606.37
2023-03-15T01:58:37.670Z,606.75
2023-03-15T01:58:47.695Z,606.39
2023-03-15T01:58:57.669Z,606.45
2023-03-15T01:59:07.668Z,606.41
2023-03-15T01:59:17.686Z,606.53
2023-03-15T01:59:27.672Z,606.37
2023-03-15T01:59:37.674Z,606.45
2023-03-15T01:59:47.678Z,606.30
2023-03-15T01:59:57.686Z,606.44
2023-03-15T02:00:07.681Z,606.29
2023-03-15T02:00:17.692Z,606.29
2023-03-15T02:00:27.727Z,606.58
2023-03-15T02:00:37.715Z,606.45
2023-03-15T02:00:47.724Z,606.40
2023-03-15T02:00:57.703Z,606.37
2023-03-15T02:01:07.719Z,606.36
2023-03-15T02:01:17.850Z,606.30
2023-03-15T02:01:27.689Z,606.56
2023-03-15T02:01:37.692Z,606.58
2023-03-15T02:01:47.734Z,606.59
2023-03-15T02:01:57.707Z,606.24
2023-03-15T02:02:07.727Z,606.41
2023-03-15T02:02:18.149Z,606.33
2023-03-15T02:02:27.721Z,606.34
2023-03-15T02:02:37.705Z,606.34
2023-03-15T02:02:47.709Z,606.20
2023-03-15T02:02:57.694Z,606.15
2023-03-15T02:03:07.695Z,606.17
2023-03-15T02:03:17.712Z,605.98
2023-03-15T02:03:27.705Z,606.17
2023-03-15T02:03:37.701Z,606.06
2023-03-15T02:03:47.696Z,606.13
2023-03-15T02:03:57.728Z,606.13
2023-03-15T02:04:07.705Z,606.41
2023-03-15T02:04:17.717Z,606.28
2023-03-15T02:04:27.714Z,606.39
2023-03-15T02:04:37.724Z,606.29
2023-03-15T02:04:47.707Z,606.23